Time,TemperatureF,DewpointF,PressureIn,WindDirection,WindDirectionDegrees,WindSpeedMPH,WindSpeedGustMPH,Humidity,HourlyPrecipIn,Conditions,Clouds,dailyrainin,SoftwareType,DateUTC
2013-01-12 00:03:00,54.4,32.2,29.66,SW,225,4.5,5.6,43,0.00,,,0.00,WUHU216HW,2013-01-12 06:03:00,
2013-01-12 00:08:00,54.0,30.3,29.66,WNW,293,2.7,5.6,40,0.00,,,0.00,WUHU216HW,2013-01-12 06:08:00,
2013-01-12 00:13:00,53.6,29.9,29.66,WNW,293,1.8,5.4,40,0.00,,,0.00,WUHU216HW,2013-01-12 06:13:00,
2013-01-12 00:18:00,53.1,30.5,29.67,WNW,293,1.1,4.0,42,0.00,,,0.00,WUHU216HW,2013-01-12 06:18:00,
2013-01-12 00:23:00,52.7,29.6,29.68,WNW,293,1.6,3.1,41,0.00,,,0.00,WUHU216HW,2013-01-12 06:23:00,
2013-01-12 00:28:00,52.4,28.1,29.67,West,270,2.5,5.8,39,0.00,,,0.00,WUHU216HW,2013-01-12 06:28:00,
2013-01-12 00:33:00,52.2,27.9,29.68,WSW,248,1.8,5.8,39,0.00,,,0.00,WUHU216HW,2013-01-12 06:33:00,
2013-01-12 00:38:00,51.8,26.9,29.68,West,270,3.1,5.1,38,0.00,,,0.00,WUHU216HW,2013-01-12 06:38:00,
2013-01-12 00:43:00,51.5,27.3,29.69,West,270,1.8,5.1,39,0.00,,,0.00,WUHU216HW,2013-01-12 06:43:00,
2013-01-12 00:48:00,51.3,27.1,29.69,West,270,3.8,6.3,39,0.00,,,0.00,WUHU216HW,2013-01-12 06:48:00,
2013-01-12 00:53:00,51.1,26.3,29.70,WNW,293,4.7,6.3,38,0.00,,,0.00,WUHU216HW,2013-01-12 06:53:00,
2013-01-12 00:58:00,50.8,27.3,29.70,West,270,2.9,4.7,40,0.00,,,0.00,WUHU216HW,2013-01-12 06:58:00,
2013-01-12 01:03:00,50.4,27.0,29.70,West,270,2.0,4.7,40,0.00,,,0.00,WUHU216HW,2013-01-12 07:03:00,
2013-01-12 01:08:00,50.0,26.6,29.71,West,270,5.1,6.7,40,0.00,,,0.00,WUHU216HW,2013-01-12 07:08:00,
2013-01-12 01:13:00,49.9,27.0,29.71,NW,315,1.1,6.7,41,0.00,,,0.00,WUHU216HW,2013-01-12 07:13:00,
2013-01-12 01:18:00,49.5,27.3,29.72,West,270,2.2,5.1,42,0.00,,,0.00,WUHU216HW,2013-01-12 07:18:00,
2013-01-12 01:23:00,49.0,27.3,29.72,West,270,4.7,5.1,43,0.00,,,0.00,WUHU216HW,2013-01-12 07:23:00,
2013-01-12 01:28:00,48.6,28.1,29.72,WNW,293,5.4,5.8,45,0.00,,,0.00,WUHU216HW,2013-01-12 07:28:00,
2013-01-12 01:33:00,47.9,31.5,29.73,WNW,293,4.7,6.7,53,0.00,,,0.00,WUHU216HW,2013-01-12 07:33:00,
2013-01-12 01:38:00,46.8,32.3,29.74,NW,315,4.0,6.7,57,0.00,,,0.00,WUHU216HW,2013-01-12 07:38:00,
2013-01-12 01:43:00,45.7,32.7,29.74,WNW,293,6.0,8.7,60,0.00,,,0.00,WUHU216HW,2013-01-12 07:43:00,
2013-01-12 01:48:00,44.6,32.9,29.76,WNW,293,6.7,8.7,63,0.00,,,0.00,WUHU216HW,2013-01-12 07:48:00,
2013-01-12 01:53:00,43.7,33.1,29.76,West,270,5.1,7.8,66,0.00,,,0.00,WUHU216HW,2013-01-12 07:53:00,
2013-01-12 01:58:00,43.0,33.2,29.77,NW,315,2.9,6.7,68,0.00,,,0.00,WUHU216HW,2013-01-12 07:58:00,
2013-01-12 02:03:00,42.5,33.1,29.77,West,270,5.8,6.3,69,0.00,,,0.00,WUHU216HW,2013-01-12 08:03:00,
2013-01-12 02:08:00,41.9,32.9,29.78,NW,315,3.6,6.3,70,0.00,,,0.00,WUHU216HW,2013-01-12 08:08:00,
2013-01-12 02:13:00,41.4,32.8,29.78,NW,315,1.8,5.8,71,0.00,,,0.00,WUHU216HW,2013-01-12 08:13:00,
2013-01-12 02:18:00,40.9,32.9,29.78,SSW,203,3.6,5.4,73,0.00,,,0.00,WUHU216HW,2013-01-12 08:18:00,
2013-01-12 02:23:00,40.3,32.7,29.79,WSW,248,4.0,5.8,74,0.00,,,0.00,WUHU216HW,2013-01-12 08:23:00,
2013-01-12 02:28:00,39.8,32.5,29.79,WNW,293,4.5,6.5,75,0.00,,,0.00,WUHU216HW,2013-01-12 08:28:00,
2013-01-12 02:33:00,39.2,32.3,29.79,NW,315,1.6,6.5,76,0.00,,,0.00,WUHU216HW,2013-01-12 08:33:00,
2013-01-12 02:38:00,38.9,32.0,29.79,WNW,293,3.4,5.4,76,0.00,,,0.00,WUHU216HW,2013-01-12 08:38:00,
2013-01-12 02:43:00,38.7,32.1,29.80,WNW,293,4.7,5.4,77,0.00,,,0.00,WUHU216HW,2013-01-12 08:43:00,
2013-01-12 02:48:00,38.5,32.0,29.80,WSW,248,2.7,5.6,77,0.00,,,0.00,WUHU216HW,2013-01-12 08:48:00,
2013-01-12 02:53:00,38.2,31.2,29.81,NW,315,4.7,5.6,76,0.00,,,0.00,WUHU216HW,2013-01-12 08:53:00,
2013-01-12 02:58:00,38.0,31.1,29.81,NW,315,2.7,5.4,76,0.00,,,0.00,WUHU216HW,2013-01-12 08:58:00,
2013-01-12 03:03:00,37.8,30.9,29.81,NNW,338,5.6,5.6,76,0.00,,,0.00,WUHU216HW,2013-01-12 09:03:00,
2013-01-12 03:08:00,37.4,30.6,29.81,WNW,293,2.5,6.5,76,0.00,,,0.00,WUHU216HW,2013-01-12 09:08:00,
2013-01-12 03:13:00,37.4,30.6,29.81,NNW,338,2.0,6.5,76,0.00,,,0.00,WUHU216HW,2013-01-12 09:13:00,
2013-01-12 03:18:00,37.1,30.5,29.82,WNW,293,3.4,5.4,77,0.00,,,0.00,WUHU216HW,2013-01-12 09:18:00,
2013-01-12 03:23:00,37.1,30.3,29.82,WNW,293,1.6,5.4,76,0.00,,,0.00,WUHU216HW,2013-01-12 09:23:00,
2013-01-12 03:28:00,36.7,29.9,29.83,WNW,293,2.5,4.7,76,0.00,,,0.00,WUHU216HW,2013-01-12 09:28:00,
2013-01-12 03:33:00,36.7,29.9,29.83,West,270,4.3,4.7,76,0.00,,,0.00,WUHU216HW,2013-01-12 09:33:00,
2013-01-12 03:38:00,36.4,29.8,29.83,WNW,293,1.8,4.7,77,0.00,,,0.00,WUHU216HW,2013-01-12 09:38:00,
2013-01-12 03:43:00,36.2,29.4,29.83,NW,315,4.0,4.7,76,0.00,,,0.00,WUHU216HW,2013-01-12 09:43:00,
2013-01-12 03:48:00,36.0,29.2,29.84,WNW,293,2.5,4.9,76,0.00,,,0.00,WUHU216HW,2013-01-12 09:48:00,
2013-01-12 03:53:00,35.6,28.1,29.84,WSW,248,2.5,4.9,74,0.00,,,0.00,WUHU216HW,2013-01-12 09:53:00,
2013-01-12 03:58:00,35.1,27.3,29.84,WSW,248,1.1,4.9,73,0.00,,,0.00,WUHU216HW,2013-01-12 09:58:00,
2013-01-12 04:03:00,34.7,26.9,29.84,WNW,293,1.8,4.7,73,0.00,,,0.00,WUHU216HW,2013-01-12 10:03:00,
2013-01-12 04:08:00,34.6,26.7,29.84,West,270,1.6,4.7,73,0.00,,,0.00,WUHU216HW,2013-01-12 10:08:00,
2013-01-12 04:13:00,34.2,26.4,29.84,North,0,2.5,3.4,73,0.00,,,0.00,WUHU216HW,2013-01-12 10:13:00,
2013-01-12 04:18:00,34.0,26.2,29.84,ENE,68,1.6,4.5,73,0.00,,,0.00,WUHU216HW,2013-01-12 10:18:00,
2013-01-12 04:23:00,33.7,25.5,29.85,WNW,293,2.5,6.3,72,0.00,,,0.00,WUHU216HW,2013-01-12 10:23:00,
2013-01-12 04:28:00,33.5,25.7,29.85,NNW,338,1.8,6.3,73,0.00,,,0.00,WUHU216HW,2013-01-12 10:28:00,
2013-01-12 04:33:00,33.5,25.7,29.85,West,270,2.7,6.3,73,0.00,,,0.00,WUHU216HW,2013-01-12 10:33:00,
2013-01-12 04:38:00,33.1,25.0,29.86,West,270,3.1,6.3,72,0.00,,,0.00,WUHU216HW,2013-01-12 10:38:00,
2013-01-12 04:43:00,32.9,24.8,29.86,West,270,2.0,5.4,72,0.00,,,0.00,WUHU216HW,2013-01-12 10:43:00,
2013-01-12 04:48:00,32.8,24.7,29.86,West,270,2.7,6.3,72,0.00,,,0.00,WUHU216HW,2013-01-12 10:48:00,
2013-01-12 04:53:00,32.6,23.9,29.86,NW,315,1.1,6.3,70,0.00,,,0.00,WUHU216HW,2013-01-12 10:53:00,
2013-01-12 04:58:00,32.2,22.9,29.87,West,270,3.6,6.0,68,0.00,,,0.00,WUHU216HW,2013-01-12 10:58:00,
2013-01-12 05:03:00,32.0,22.7,29.87,WNW,293,1.3,6.0,68,0.00,,,0.00,WUHU216HW,2013-01-12 11:03:00,
2013-01-12 05:08:00,31.7,21.6,29.87,NW,315,1.8,3.8,66,0.00,,,0.00,WUHU216HW,2013-01-12 11:08:00,
2013-01-12 05:13:00,31.5,21.4,29.87,West,270,2.2,4.0,66,0.00,,,0.00,WUHU216HW,2013-01-12 11:13:00,
2013-01-12 05:18:00,31.3,21.2,29.87,NNW,338,1.8,4.0,66,0.00,,,0.00,WUHU216HW,2013-01-12 11:18:00,
2013-01-12 05:23:00,31.1,21.1,29.87,NW,315,1.8,6.3,66,0.00,,,0.00,WUHU216HW,2013-01-12 11:23:00,
2013-01-12 05:28:00,30.8,20.7,29.87,WSW,248,5.4,6.3,66,0.00,,,0.00,WUHU216HW,2013-01-12 11:28:00,
2013-01-12 05:33:00,30.6,20.5,29.87,NNE,23,2.2,5.4,66,0.00,,,0.00,WUHU216HW,2013-01-12 11:33:00,
2013-01-12 05:38:00,30.2,20.2,29.87,WNW,293,2.5,5.4,66,0.00,,,0.00,WUHU216HW,2013-01-12 11:38:00,
2013-01-12 05:43:00,29.9,19.8,29.89,West,270,4.0,4.7,66,0.00,,,0.00,WUHU216HW,2013-01-12 11:43:00,
2013-01-12 05:48:00,29.9,19.8,29.89,NE,45,3.4,4.7,66,0.00,,,0.00,WUHU216HW,2013-01-12 11:48:00,
2013-01-12 05:53:00,29.5,19.5,29.89,NW,315,3.8,4.0,66,0.00,,,0.00,WUHU216HW,2013-01-12 11:53:00,
2013-01-12 05:58:00,29.3,19.4,29.89,West,270,1.8,4.0,66,0.00,,,0.00,WUHU216HW,2013-01-12 11:58:00,
2013-01-12 06:03:00,29.2,19.2,29.89,West,270,3.4,3.8,66,0.00,,,0.00,WUHU216HW,2013-01-12 12:03:00,
2013-01-12 06:08:00,29.2,19.2,29.90,NNW,338,3.6,3.6,66,0.00,,,0.00,WUHU216HW,2013-01-12 12:08:00,
2013-01-12 06:13:00,29.0,19.0,29.89,NNW,338,2.0,3.6,66,0.00,,,0.00,WUHU216HW,2013-01-12 12:13:00,
2013-01-12 06:18:00,29.0,19.0,29.89,NW,315,1.8,3.4,66,0.00,,,0.00,WUHU216HW,2013-01-12 12:18:00,
2013-01-12 06:23:00,28.8,18.9,29.89,SSE,158,2.0,2.7,66,0.00,,,0.00,WUHU216HW,2013-01-12 12:23:00,
2013-01-12 06:28:00,28.6,18.7,29.89,NNW,338,1.8,2.7,66,0.00,,,0.00,WUHU216HW,2013-01-12 12:28:00,
2013-01-12 06:33:00,28.4,18.5,29.90,NNW,338,2.9,3.4,66,0.00,,,0.00,WUHU216HW,2013-01-12 12:33:00,
2013-01-12 06:38:00,28.4,18.5,29.90,WNW,293,1.3,4.0,66,0.00,,,0.00,WUHU216HW,2013-01-12 12:38:00,
2013-01-12 06:43:00,28.3,18.4,29.92,West,270,2.0,4.0,66,0.00,,,0.00,WUHU216HW,2013-01-12 12:43:00,
2013-01-12 06:48:00,28.3,18.4,29.92,WNW,293,2.5,3.4,66,0.00,,,0.00,WUHU216HW,2013-01-12 12:48:00,
2013-01-12 06:53:00,28.1,18.2,29.92,NW,315,1.6,3.4,66,0.00,,,0.00,WUHU216HW,2013-01-12 12:53:00,
2013-01-12 06:58:00,28.1,18.2,29.92,SSW,203,1.3,3.4,66,0.00,,,0.00,WUHU216HW,2013-01-12 12:58:00,
2013-01-12 07:03:00,28.1,18.5,29.92,NW,315,4.0,4.0,67,0.00,,,0.00,WUHU216HW,2013-01-12 13:03:00,
2013-01-12 07:08:00,27.9,18.4,29.92,NNE,23,2.5,4.0,67,0.00,,,0.00,WUHU216HW,2013-01-12 13:08:00,
2013-01-12 07:13:00,27.7,18.2,29.93,WNW,293,1.8,4.9,67,0.00,,,0.00,WUHU216HW,2013-01-12 13:13:00,
2013-01-12 07:18:00,27.7,18.5,29.92,WSW,248,1.1,4.9,68,0.00,,,0.00,WUHU216HW,2013-01-12 13:18:00,
2013-01-12 07:23:00,27.7,18.5,29.92,WNW,293,0.4,3.4,68,0.00,,,0.00,WUHU216HW,2013-01-12 13:23:00,
2013-01-12 07:28:00,27.7,18.9,29.91,NE,45,1.1,2.5,69,0.00,,,0.00,WUHU216HW,2013-01-12 13:28:00,
2013-01-12 07:33:00,27.5,18.7,29.92,WNW,293,1.3,2.7,69,0.00,,,0.00,WUHU216HW,2013-01-12 13:33:00,
2013-01-12 07:38:00,27.5,18.7,29.93,West,270,1.1,3.4,69,0.00,,,0.00,WUHU216HW,2013-01-12 13:38:00,
2013-01-12 07:43:00,27.4,18.5,29.93,North,0,1.1,3.4,69,0.00,,,0.00,WUHU216HW,2013-01-12 13:43:00,
2013-01-12 07:48:00,27.4,18.5,29.93,West,270,1.1,3.6,69,0.00,,,0.00,WUHU216HW,2013-01-12 13:48:00,
2013-01-12 07:53:00,27.4,18.9,29.93,West,270,1.1,3.6,70,0.00,,,0.00,WUHU216HW,2013-01-12 13:53:00,
2013-01-12 07:58:00,27.4,18.5,29.93,West,270,3.4,4.0,69,0.00,,,0.00,WUHU216HW,2013-01-12 13:58:00,
2013-01-12 08:03:00,27.4,18.5,29.93,NNE,23,2.0,4.0,69,0.00,,,0.00,WUHU216HW,2013-01-12 14:03:00,
2013-01-12 08:09:00,27.4,18.9,29.93,SW,225,2.0,4.0,70,0.00,,,0.00,WUHU216HW,2013-01-12 14:09:00,
2013-01-12 08:14:00,27.4,18.2,29.93,East,90,4.0,4.9,68,0.00,,,0.00,WUHU216HW,2013-01-12 14:14:00,
2013-01-12 08:19:00,27.4,18.2,29.94,WSW,248,2.0,4.9,68,0.00,,,0.00,WUHU216HW,2013-01-12 14:19:00,
2013-01-12 08:24:00,27.2,16.9,29.94,NW,315,2.7,4.0,65,0.00,,,0.00,WUHU216HW,2013-01-12 14:24:00,
2013-01-12 08:28:00,27.2,16.9,29.94,WSW,248,4.0,8.9,65,0.00,,,0.00,WUHU216HW,2013-01-12 14:28:00,
2013-01-12 08:33:00,27.2,16.2,29.94,NE,45,2.9,8.9,63,0.00,,,0.00,WUHU216HW,2013-01-12 14:33:00,
2013-01-12 08:39:00,27.4,16.4,29.94,West,270,1.3,4.0,63,0.00,,,0.00,WUHU216HW,2013-01-12 14:39:00,
2013-01-12 08:44:00,27.4,16.0,29.95,SSE,158,2.9,4.0,62,0.00,,,0.00,WUHU216HW,2013-01-12 14:44:00,
2013-01-12 08:49:00,27.4,16.4,29.96,NE,45,1.6,4.0,63,0.00,,,0.00,WUHU216HW,2013-01-12 14:49:00,
2013-01-12 08:54:00,27.4,16.0,29.97,WSW,248,2.5,4.0,62,0.00,,,0.00,WUHU216HW,2013-01-12 14:54:00,
2013-01-12 08:59:00,27.4,16.0,29.96,NNE,23,2.5,4.7,62,0.00,,,0.00,WUHU216HW,2013-01-12 14:59:00,
2013-01-12 09:04:00,27.4,16.4,29.96,NE,45,1.3,4.7,63,0.00,,,0.00,WUHU216HW,2013-01-12 15:04:00,
2013-01-12 09:09:00,27.4,16.4,29.97,East,90,1.8,4.9,63,0.00,,,0.00,WUHU216HW,2013-01-12 15:09:00,
2013-01-12 09:14:00,27.4,16.4,29.98,NE,45,2.5,4.9,63,0.00,,,0.00,WUHU216HW,2013-01-12 15:14:00,
2013-01-12 09:19:00,27.5,16.6,29.97,SW,225,1.3,6.0,63,0.00,,,0.00,WUHU216HW,2013-01-12 15:19:00,
2013-01-12 09:24:00,27.5,16.2,29.97,ENE,68,2.9,6.0,62,0.00,,,0.00,WUHU216HW,2013-01-12 15:24:00,
2013-01-12 09:29:00,27.7,16.4,29.99,NNW,338,3.8,4.5,62,0.00,,,0.00,WUHU216HW,2013-01-12 15:29:00,
2013-01-12 09:34:00,27.7,16.4,29.99,WNW,293,1.6,4.3,62,0.00,,,0.00,WUHU216HW,2013-01-12 15:34:00,
2013-01-12 09:39:00,27.9,16.6,30.00,ENE,68,1.6,4.9,62,0.00,,,0.00,WUHU216HW,2013-01-12 15:39:00,
2013-01-12 09:44:00,28.1,17.1,29.99,North,0,0.4,4.9,63,0.00,,,0.00,WUHU216HW,2013-01-12 15:44:00,
2013-01-12 09:49:00,28.3,16.9,30.01,WNW,293,0.4,2.7,62,0.00,,,0.00,WUHU216HW,2013-01-12 15:49:00,
2013-01-12 09:54:00,28.4,17.5,30.00,East,90,0.4,2.7,63,0.00,,,0.00,WUHU216HW,2013-01-12 15:54:00,
2013-01-12 09:59:00,28.8,17.5,30.00,West,270,1.6,3.8,62,0.00,,,0.00,WUHU216HW,2013-01-12 15:59:00,
2013-01-12 10:04:00,29.2,17.7,29.99,ENE,68,0.9,5.6,62,0.00,,,0.00,WUHU216HW,2013-01-12 16:04:00,
2013-01-12 10:09:00,29.3,17.9,29.98,NE,45,2.5,5.6,62,0.00,,,0.00,WUHU216HW,2013-01-12 16:09:00,
2013-01-12 10:14:00,29.2,17.7,29.98,SW,225,1.8,4.3,62,0.00,,,0.00,WUHU216HW,2013-01-12 16:14:00,
2013-01-12 10:19:00,29.2,17.7,29.98,NE,45,0.9,4.3,62,0.00,,,0.00,WUHU216HW,2013-01-12 16:19:00,
2013-01-12 10:24:00,29.2,17.7,29.98,ENE,68,2.5,4.0,62,0.00,,,0.00,WUHU216HW,2013-01-12 16:24:00,
2013-01-12 10:29:00,29.3,17.9,29.98,North,0,1.6,4.0,62,0.00,,,0.00,WUHU216HW,2013-01-12 16:29:00,
2013-01-12 10:34:00,29.2,17.7,29.97,NNW,338,1.8,3.4,62,0.00,,,0.00,WUHU216HW,2013-01-12 16:34:00,
2013-01-12 10:39:00,29.3,17.6,29.97,NNW,338,1.6,3.1,61,0.00,,,0.00,WUHU216HW,2013-01-12 16:39:00,
2013-01-12 10:44:00,29.3,17.6,29.97,WNW,293,1.3,3.8,61,0.00,,,0.00,WUHU216HW,2013-01-12 16:44:00,
2013-01-12 10:49:00,29.2,17.7,29.98,WSW,248,1.3,3.8,62,0.00,,,0.00,WUHU216HW,2013-01-12 16:49:00,
2013-01-12 10:54:00,29.3,17.9,29.98,West,270,2.5,4.3,62,0.00,,,0.00,WUHU216HW,2013-01-12 16:54:00,
2013-01-12 10:59:00,29.3,17.9,29.98,NE,45,2.2,4.3,62,0.00,,,0.00,WUHU216HW,2013-01-12 16:59:00,
2013-01-12 11:04:00,29.5,18.1,29.97,WNW,293,1.8,3.4,62,0.00,,,0.00,WUHU216HW,2013-01-12 17:04:00,
2013-01-12 11:09:00,29.5,18.1,29.97,NNE,23,5.4,5.4,62,0.00,,,0.00,WUHU216HW,2013-01-12 17:09:00,
2013-01-12 11:14:00,29.7,18.3,29.97,NNW,338,1.8,5.4,62,0.00,,,0.00,WUHU216HW,2013-01-12 17:14:00,
2013-01-12 11:19:00,29.9,18.4,29.97,East,90,1.8,2.9,62,0.00,,,0.00,WUHU216HW,2013-01-12 17:19:00,
2013-01-12 11:24:00,29.9,18.0,29.96,NE,45,1.6,4.0,61,0.00,,,0.00,WUHU216HW,2013-01-12 17:24:00,
2013-01-12 11:29:00,29.9,18.0,29.95,WNW,293,1.8,4.0,61,0.00,,,0.00,WUHU216HW,2013-01-12 17:29:00,
2013-01-12 11:34:00,30.1,17.8,29.94,NNW,338,2.5,2.9,60,0.00,,,0.00,WUHU216HW,2013-01-12 17:34:00,
2013-01-12 11:38:00,29.9,17.6,29.93,West,270,1.1,3.1,60,0.00,,,0.00,WUHU216HW,2013-01-12 17:38:00,
2013-01-12 11:44:00,29.9,17.6,29.93,WNW,293,4.5,4.5,60,0.00,,,0.00,WUHU216HW,2013-01-12 17:44:00,
2013-01-12 11:49:00,29.9,17.6,29.93,North,0,2.0,4.5,60,0.00,,,0.00,WUHU216HW,2013-01-12 17:49:00,
2013-01-12 11:54:00,30.1,17.8,29.92,East,90,1.1,5.1,60,0.00,,,0.00,WUHU216HW,2013-01-12 17:54:00,
2013-01-12 11:59:00,29.9,17.6,29.92,NW,315,2.7,5.1,60,0.00,,,0.00,WUHU216HW,2013-01-12 17:59:00,
2013-01-12 12:04:00,29.7,17.6,29.92,NNE,23,1.8,4.3,60,0.00,,,0.00,WUHU216HW,2013-01-12 18:04:00,
2013-01-12 12:09:00,29.7,17.6,29.92,East,90,0.4,5.1,60,0.00,,,0.00,WUHU216HW,2013-01-12 18:09:00,
2013-01-12 12:14:00,29.5,17.7,29.92,NW,315,0.4,5.1,61,0.00,,,0.00,WUHU216HW,2013-01-12 18:14:00,
2013-01-12 12:19:00,29.7,17.9,29.93,WNW,293,1.8,4.0,61,0.00,,,0.00,WUHU216HW,2013-01-12 18:19:00,
2013-01-12 12:24:00,29.7,17.9,29.93,NW,315,1.1,4.5,61,0.00,,,0.00,WUHU216HW,2013-01-12 18:24:00,
2013-01-12 12:29:00,29.7,17.9,29.93,NNW,338,1.1,4.5,61,0.00,,,0.00,WUHU216HW,2013-01-12 18:29:00,
2013-01-12 12:34:00,29.9,18.0,29.93,North,0,2.2,4.3,61,0.00,,,0.00,WUHU216HW,2013-01-12 18:34:00,
2013-01-12 12:38:00,29.9,18.0,29.93,NNW,338,0.7,2.2,61,0.00,,,0.00,WUHU216HW,2013-01-12 18:38:00,
2013-01-12 12:44:00,29.9,17.3,29.93,North,0,1.1,4.0,59,0.00,,,0.00,WUHU216HW,2013-01-12 18:44:00,
2013-01-12 12:49:00,29.7,17.6,29.93,NNE,23,0.9,4.0,60,0.00,,,0.00,WUHU216HW,2013-01-12 18:49:00,
2013-01-12 12:54:00,29.7,17.6,29.93,NNW,338,2.7,3.6,60,0.00,,,0.00,WUHU216HW,2013-01-12 18:54:00,
2013-01-12 12:59:00,29.5,17.7,29.92,North,0,1.3,3.4,61,0.00,,,0.00,WUHU216HW,2013-01-12 18:59:00,
2013-01-12 13:04:00,29.7,17.9,29.92,NW,315,1.1,3.4,61,0.00,,,0.00,WUHU216HW,2013-01-12 19:04:00,
2013-01-12 13:09:00,29.9,18.0,29.91,NW,315,2.0,4.0,61,0.00,,,0.00,WUHU216HW,2013-01-12 19:09:00,
2013-01-12 13:14:00,29.9,18.0,29.92,WSW,248,1.1,4.0,61,0.00,,,0.00,WUHU216HW,2013-01-12 19:14:00,
2013-01-12 13:19:00,29.9,18.0,29.91,NW,315,1.3,4.0,61,0.00,,,0.00,WUHU216HW,2013-01-12 19:19:00,
2013-01-12 13:24:00,29.9,18.0,29.91,North,0,4.9,4.9,61,0.00,,,0.00,WUHU216HW,2013-01-12 19:24:00,
2013-01-12 13:29:00,29.7,17.1,29.92,East,90,2.5,6.9,59,0.00,,,0.00,WUHU216HW,2013-01-12 19:29:00,
2013-01-12 13:34:00,29.7,17.6,29.93,SW,225,0.7,6.9,60,0.00,,,0.00,WUHU216HW,2013-01-12 19:34:00,
2013-01-12 13:39:00,29.7,17.6,29.93,NNW,338,2.2,4.7,60,0.00,,,0.00,WUHU216HW,2013-01-12 19:39:00,
2013-01-12 13:44:00,29.7,17.6,29.93,WNW,293,1.8,4.7,60,0.00,,,0.00,WUHU216HW,2013-01-12 19:44:00,
2013-01-12 13:49:00,29.5,17.4,29.92,NNW,338,0.2,4.7,60,0.00,,,0.00,WUHU216HW,2013-01-12 19:49:00,
2013-01-12 13:54:00,29.5,17.7,29.93,NE,45,2.2,4.7,61,0.00,,,0.00,WUHU216HW,2013-01-12 19:54:00,
2013-01-12 13:59:00,29.5,17.7,29.94,North,0,2.0,3.4,61,0.00,,,0.00,WUHU216HW,2013-01-12 19:59:00,
2013-01-12 14:03:00,29.7,17.9,29.93,NE,45,0.9,2.2,61,0.00,,,0.00,WUHU216HW,2013-01-12 20:03:00,
2013-01-12 14:08:00,29.7,17.9,29.93,NW,315,0.9,3.1,61,0.00,,,0.00,WUHU216HW,2013-01-12 20:08:00,
2013-01-12 14:13:00,29.7,17.9,29.92,NNE,23,3.4,3.6,61,0.00,,,0.00,WUHU216HW,2013-01-12 20:13:00,
2013-01-12 14:18:00,29.5,17.7,29.91,WNW,293,0.4,4.3,61,0.00,,,0.00,WUHU216HW,2013-01-12 20:18:00,
2013-01-12 14:23:00,29.5,17.4,29.91,NNE,23,5.1,5.1,60,0.00,,,0.00,WUHU216HW,2013-01-12 20:23:00,
2013-01-12 14:28:00,29.5,17.4,29.90,WSW,248,0.9,5.1,60,0.00,,,0.00,WUHU216HW,2013-01-12 20:28:00,
2013-01-12 14:33:00,29.3,17.2,29.89,NW,315,6.9,6.9,60,0.00,,,0.00,WUHU216HW,2013-01-12 20:33:00,
2013-01-12 14:38:00,29.2,16.7,29.90,NNE,23,0.4,6.9,59,0.00,,,0.00,WUHU216HW,2013-01-12 20:38:00,
2013-01-12 14:43:00,29.2,16.7,29.90,WNW,293,2.5,6.9,59,0.00,,,0.00,WUHU216HW,2013-01-12 20:43:00,
2013-01-12 14:48:00,29.0,16.0,29.91,NE,45,1.1,6.0,58,0.00,,,0.00,WUHU216HW,2013-01-12 20:48:00,
2013-01-12 14:53:00,28.8,15.8,29.92,NNE,23,3.1,8.5,58,0.00,,,0.00,WUHU216HW,2013-01-12 20:53:00,
2013-01-12 14:58:00,28.8,15.8,29.92,ENE,68,2.5,8.5,58,0.00,,,0.00,WUHU216HW,2013-01-12 20:58:00,
2013-01-12 15:03:00,28.6,16.1,29.91,NNW,338,2.9,8.5,59,0.00,,,0.00,WUHU216HW,2013-01-12 21:03:00,
2013-01-12 15:08:00,28.4,15.9,29.91,NE,45,1.3,8.5,59,0.00,,,0.00,WUHU216HW,2013-01-12 21:08:00,
2013-01-12 15:13:00,28.4,15.6,29.91,East,90,1.3,5.1,58,0.00,,,0.00,WUHU216HW,2013-01-12 21:13:00,
2013-01-12 15:18:00,28.4,15.6,29.92,North,0,4.5,6.9,58,0.00,,,0.00,WUHU216HW,2013-01-12 21:18:00,
2013-01-12 15:23:00,28.3,14.9,29.91,NE,45,5.4,7.2,57,0.00,,,0.00,WUHU216HW,2013-01-12 21:23:00,
2013-01-12 15:28:00,28.3,15.4,29.91,NW,315,0.7,7.2,58,0.00,,,0.00,WUHU216HW,2013-01-12 21:28:00,
2013-01-12 15:33:00,28.3,15.8,29.91,ENE,68,2.5,7.2,59,0.00,,,0.00,WUHU216HW,2013-01-12 21:33:00,
2013-01-12 15:38:00,28.3,15.4,29.92,NNW,338,1.8,5.1,58,0.00,,,0.00,WUHU216HW,2013-01-12 21:38:00,
2013-01-12 15:43:00,28.3,15.4,29.92,NE,45,2.9,4.0,58,0.00,,,0.00,WUHU216HW,2013-01-12 21:43:00,
2013-01-12 15:48:00,28.1,15.2,29.91,NNE,23,2.2,5.4,58,0.00,,,0.00,WUHU216HW,2013-01-12 21:48:00,
2013-01-12 15:53:00,28.1,15.2,29.92,NNW,338,2.9,5.4,58,0.00,,,0.00,WUHU216HW,2013-01-12 21:53:00,
2013-01-12 15:58:00,27.9,15.0,29.93,WNW,293,1.1,5.4,58,0.00,,,0.00,WUHU216HW,2013-01-12 21:58:00,
2013-01-12 16:03:00,27.7,14.9,29.93,WSW,248,1.1,3.6,58,0.00,,,0.00,WUHU216HW,2013-01-12 22:03:00,
2013-01-12 16:09:00,27.7,14.9,29.93,WSW,248,1.8,3.6,58,0.00,,,0.00,WUHU216HW,2013-01-12 22:09:00,
2013-01-12 16:14:00,27.7,15.2,29.93,WNW,293,1.1,3.8,59,0.00,,,0.00,WUHU216HW,2013-01-12 22:14:00,
2013-01-12 16:19:00,27.5,15.0,29.93,NNW,338,3.1,3.8,59,0.00,,,0.00,WUHU216HW,2013-01-12 22:19:00,
2013-01-12 16:24:00,27.4,14.9,29.93,West,270,1.1,4.0,59,0.00,,,0.00,WUHU216HW,2013-01-12 22:24:00,
2013-01-12 16:29:00,27.4,14.9,29.93,East,90,1.3,4.0,59,0.00,,,0.00,WUHU216HW,2013-01-12 22:29:00,
2013-01-12 16:34:00,27.4,15.3,29.93,WNW,293,1.3,4.0,60,0.00,,,0.00,WUHU216HW,2013-01-12 22:34:00,
2013-01-12 16:39:00,27.2,15.1,29.94,NW,315,0.2,4.0,60,0.00,,,0.00,WUHU216HW,2013-01-12 22:39:00,
2013-01-12 16:44:00,27.4,15.7,29.94,SE,135,1.1,3.1,61,0.00,,,0.00,WUHU216HW,2013-01-12 22:44:00,
2013-01-12 16:49:00,27.2,15.1,29.95,WNW,293,2.7,3.1,60,0.00,,,0.00,WUHU216HW,2013-01-12 22:49:00,
2013-01-12 16:54:00,27.2,15.1,29.95,WSW,248,2.9,5.4,60,0.00,,,0.00,WUHU216HW,2013-01-12 22:54:00,
2013-01-12 16:59:00,27.2,15.5,29.95,North,0,1.8,5.4,61,0.00,,,0.00,WUHU216HW,2013-01-12 22:59:00,
2013-01-12 17:04:00,27.0,15.3,29.95,West,270,2.5,3.6,61,0.00,,,0.00,WUHU216HW,2013-01-12 23:04:00,
2013-01-12 17:09:00,27.0,15.3,29.96,WNW,293,1.1,3.6,61,0.00,,,0.00,WUHU216HW,2013-01-12 23:09:00,
2013-01-12 17:14:00,26.8,15.1,29.98,NNW,338,1.3,3.8,61,0.00,,,0.00,WUHU216HW,2013-01-12 23:14:00,
2013-01-12 17:19:00,26.8,15.1,29.99,North,0,2.7,3.8,61,0.00,,,0.00,WUHU216HW,2013-01-12 23:19:00,
2013-01-12 17:24:00,26.6,14.9,29.98,NNW,338,2.0,2.9,61,0.00,,,0.00,WUHU216HW,2013-01-12 23:24:00,
2013-01-12 17:29:00,26.6,14.9,29.99,SSE,158,2.5,3.4,61,0.00,,,0.00,WUHU216HW,2013-01-12 23:29:00,
2013-01-12 17:34:00,26.6,14.9,29.98,SW,225,2.7,3.4,61,0.00,,,0.00,WUHU216HW,2013-01-12 23:34:00,
2013-01-12 17:39:00,26.5,14.8,29.97,WNW,293,1.3,3.8,61,0.00,,,0.00,WUHU216HW,2013-01-12 23:39:00,
2013-01-12 17:44:00,26.3,14.6,29.97,NW,315,1.3,3.8,61,0.00,,,0.00,WUHU216HW,2013-01-12 23:44:00,
2013-01-12 17:49:00,26.3,13.9,29.96,WSW,248,2.5,3.4,59,0.00,,,0.00,WUHU216HW,2013-01-12 23:49:00,
2013-01-12 17:54:00,26.1,13.7,29.95,SW,225,1.3,4.7,59,0.00,,,0.00,WUHU216HW,2013-01-12 23:54:00,
2013-01-12 17:59:00,25.9,14.0,29.93,North,0,3.4,5.4,60,0.00,,,0.00,WUHU216HW,2013-01-12 23:59:00,
2013-01-12 18:04:00,25.7,13.8,29.92,North,0,4.7,5.4,60,0.00,,,0.00,WUHU216HW,2013-01-13 00:04:00,
2013-01-12 18:09:00,25.6,13.6,29.92,NNW,338,1.8,6.9,60,0.00,,,0.00,WUHU216HW,2013-01-13 00:09:00,
2013-01-12 18:14:00,25.6,13.2,29.93,NNE,23,3.8,6.9,59,0.00,,,0.00,WUHU216HW,2013-01-13 00:14:00,
2013-01-12 18:19:00,25.6,13.2,29.93,NNE,23,2.7,6.5,59,0.00,,,0.00,WUHU216HW,2013-01-13 00:19:00,
2013-01-12 18:24:00,25.6,13.2,29.93,NNW,338,4.5,6.5,59,0.00,,,0.00,WUHU216HW,2013-01-13 00:24:00,
2013-01-12 18:29:00,25.4,13.1,29.93,NNE,23,1.8,6.3,59,0.00,,,0.00,WUHU216HW,2013-01-13 00:29:00,
2013-01-12 18:34:00,25.4,13.1,29.92,ENE,68,2.2,6.3,59,0.00,,,0.00,WUHU216HW,2013-01-13 00:34:00,
2013-01-12 18:39:00,25.2,12.9,29.93,NE,45,2.5,7.8,59,0.00,,,0.00,WUHU216HW,2013-01-13 00:39:00,
2013-01-12 18:44:00,25.2,13.3,29.93,SE,135,4.0,7.8,60,0.00,,,0.00,WUHU216HW,2013-01-13 00:44:00,
2013-01-12 18:49:00,25.0,13.2,29.93,NE,45,1.1,5.6,60,0.00,,,0.00,WUHU216HW,2013-01-13 00:49:00,
2013-01-12 18:54:00,25.0,13.5,29.93,North,0,5.1,6.5,61,0.00,,,0.00,WUHU216HW,2013-01-13 00:54:00,
2013-01-12 18:59:00,25.0,13.5,29.93,NNE,23,3.8,6.5,61,0.00,,,0.00,WUHU216HW,2013-01-13 00:59:00,
2013-01-12 19:04:00,24.8,13.7,29.92,NNE,23,2.7,5.1,62,0.00,,,0.00,WUHU216HW,2013-01-13 01:04:00,
2013-01-12 19:09:00,25.0,14.1,29.92,ENE,68,3.6,10.5,63,0.00,,,0.00,WUHU216HW,2013-01-13 01:09:00,
2013-01-12 19:14:00,24.8,14.0,29.92,North,0,1.8,10.5,63,0.00,,,0.00,WUHU216HW,2013-01-13 01:14:00,
2013-01-12 19:19:00,24.8,14.0,29.93,ENE,68,1.8,8.5,63,0.00,,,0.00,WUHU216HW,2013-01-13 01:19:00,
2013-01-12 19:24:00,24.8,14.0,29.93,NE,45,2.5,5.8,63,0.00,,,0.00,WUHU216HW,2013-01-13 01:24:00,
2013-01-12 19:29:00,24.8,14.0,29.94,WNW,293,2.5,5.8,63,0.00,,,0.00,WUHU216HW,2013-01-13 01:29:00,
2013-01-12 19:34:00,25.0,14.1,29.95,NNW,338,1.1,4.7,63,0.00,,,0.00,WUHU216HW,2013-01-13 01:34:00,
2013-01-12 19:39:00,25.0,14.1,29.93,ENE,68,2.9,4.0,63,0.00,,,0.00,WUHU216HW,2013-01-13 01:39:00,
2013-01-12 19:44:00,25.0,14.1,29.94,NE,45,2.9,5.1,63,0.00,,,0.00,WUHU216HW,2013-01-13 01:44:00,
2013-01-12 19:49:00,24.8,14.0,29.93,NNW,338,1.1,5.1,63,0.00,,,0.00,WUHU216HW,2013-01-13 01:49:00,
2013-01-12 19:54:00,25.0,14.1,29.93,South,180,1.6,3.4,63,0.00,,,0.00,WUHU216HW,2013-01-13 01:54:00,
2013-01-12 19:59:00,25.0,14.1,29.93,NW,315,2.5,4.3,63,0.00,,,0.00,WUHU216HW,2013-01-13 01:59:00,
2013-01-12 20:04:00,25.0,14.5,29.93,SSW,203,0.4,4.3,64,0.00,,,0.00,WUHU216HW,2013-01-13 02:04:00,
2013-01-12 20:09:00,25.0,15.2,29.93,WSW,248,2.5,3.4,66,0.00,,,0.00,WUHU216HW,2013-01-13 02:09:00,
2013-01-12 20:14:00,24.8,15.4,29.95,SW,225,3.6,4.3,67,0.00,,,0.00,WUHU216HW,2013-01-13 02:14:00,
2013-01-12 20:19:00,24.8,16.0,29.96,ENE,68,1.6,4.7,69,0.00,,,0.00,WUHU216HW,2013-01-13 02:19:00,
2013-01-12 20:24:00,24.7,15.8,29.95,North,0,1.8,4.7,69,0.00,,,0.00,WUHU216HW,2013-01-13 02:24:00,
2013-01-12 20:29:00,24.7,15.8,29.95,NNW,338,2.2,4.7,69,0.00,,,0.00,WUHU216HW,2013-01-13 02:29:00,
2013-01-12 20:34:00,24.5,15.8,29.94,East,90,2.0,3.4,69,0.00,,,0.00,WUHU216HW,2013-01-13 02:34:00,
2013-01-12 20:39:00,24.5,15.8,29.95,NE,45,3.1,4.5,69,0.00,,,0.00,WUHU216HW,2013-01-13 02:39:00,
2013-01-12 20:44:00,24.5,15.8,29.94,NE,45,2.2,4.5,69,0.00,,,0.00,WUHU216HW,2013-01-13 02:44:00,
2013-01-12 20:49:00,24.5,15.8,29.94,North,0,1.3,4.5,69,0.00,,,0.00,WUHU216HW,2013-01-13 02:49:00,
2013-01-12 20:54:00,24.5,15.8,29.94,NE,45,1.1,4.5,69,0.00,,,0.00,WUHU216HW,2013-01-13 02:54:00,
2013-01-12 20:59:00,24.5,15.8,29.94,NW,315,1.1,4.5,69,0.00,,,0.00,WUHU216HW,2013-01-13 02:59:00,
2013-01-12 21:04:00,24.5,15.8,29.94,ENE,68,2.2,3.4,69,0.00,,,0.00,WUHU216HW,2013-01-13 03:04:00,
2013-01-12 21:09:00,24.5,15.8,29.94,NNE,23,1.6,4.3,69,0.00,,,0.00,WUHU216HW,2013-01-13 03:09:00,
2013-01-12 21:14:00,24.7,15.8,29.94,WSW,248,2.0,4.3,69,0.00,,,0.00,WUHU216HW,2013-01-13 03:14:00,
2013-01-12 21:19:00,24.7,15.8,29.93,WSW,248,1.3,2.9,69,0.00,,,0.00,WUHU216HW,2013-01-13 03:19:00,
2013-01-12 21:24:00,24.8,15.0,29.94,NE,45,2.2,4.3,66,0.00,,,0.00,WUHU216HW,2013-01-13 03:24:00,
2013-01-12 21:29:00,24.7,14.5,29.94,NW,315,2.9,4.9,65,0.00,,,0.00,WUHU216HW,2013-01-13 03:29:00,
2013-01-12 21:34:00,24.7,14.5,29.94,East,90,1.8,4.9,65,0.00,,,0.00,WUHU216HW,2013-01-13 03:34:00,
2013-01-12 21:39:00,24.7,14.5,29.94,NE,45,1.8,5.1,65,0.00,,,0.00,WUHU216HW,2013-01-13 03:39:00,
2013-01-12 21:44:00,24.7,14.1,29.95,NE,45,2.0,5.1,64,0.00,,,0.00,WUHU216HW,2013-01-13 03:44:00,
2013-01-12 21:49:00,24.7,14.1,29.94,NNW,338,3.4,5.4,64,0.00,,,0.00,WUHU216HW,2013-01-13 03:49:00,
2013-01-12 21:54:00,24.5,13.7,29.94,NE,45,2.5,5.4,63,0.00,,,0.00,WUHU216HW,2013-01-13 03:54:00,
2013-01-12 21:59:00,24.5,14.0,29.95,NNW,338,2.0,4.3,64,0.00,,,0.00,WUHU216HW,2013-01-13 03:59:00,
2013-01-12 22:04:00,24.5,14.0,29.94,NW,315,2.7,4.3,64,0.00,,,0.00,WUHU216HW,2013-01-13 04:04:00,
2013-01-12 22:09:00,24.3,13.8,29.93,NW,315,2.7,6.0,64,0.00,,,0.00,WUHU216HW,2013-01-13 04:09:00,
2013-01-12 22:14:00,24.3,13.8,29.93,North,0,1.8,6.0,64,0.00,,,0.00,WUHU216HW,2013-01-13 04:14:00,
2013-01-12 22:19:00,24.1,13.7,29.94,NW,315,3.4,5.8,64,0.00,,,0.00,WUHU216HW,2013-01-13 04:19:00,
2013-01-12 22:24:00,24.1,13.7,29.94,WNW,293,1.8,6.9,64,0.00,,,0.00,WUHU216HW,2013-01-13 04:24:00,
2013-01-12 22:29:00,23.9,13.2,29.94,West,270,3.8,6.9,63,0.00,,,0.00,WUHU216HW,2013-01-13 04:29:00,
2013-01-12 22:34:00,23.9,13.5,29.95,NNE,23,2.5,4.7,64,0.00,,,0.00,WUHU216HW,2013-01-13 04:34:00,
2013-01-12 22:39:00,23.8,13.0,29.96,NNE,23,3.4,3.8,63,0.00,,,0.00,WUHU216HW,2013-01-13 04:39:00,
2013-01-12 22:44:00,23.8,13.0,29.95,West,270,2.7,4.0,63,0.00,,,0.00,WUHU216HW,2013-01-13 04:44:00,
2013-01-12 22:49:00,23.8,13.3,29.95,NE,45,1.6,4.7,64,0.00,,,0.00,WUHU216HW,2013-01-13 04:49:00,
2013-01-12 22:54:00,23.6,12.8,29.95,NNE,23,0.7,4.7,63,0.00,,,0.00,WUHU216HW,2013-01-13 04:54:00,
2013-01-12 22:59:00,23.4,13.0,29.94,WSW,248,1.8,4.5,64,0.00,,,0.00,WUHU216HW,2013-01-13 04:59:00,
2013-01-12 23:00:00,23.4,13.0,29.94,NNE,23,3.1,4.5,64,0.00,,,0.00,WUHU216HW,2013-01-13 05:00:00,
2013-01-12 23:01:00,23.4,13.0,29.94,NW,315,1.3,4.5,64,0.00,,,0.00,WUHU216HW,2013-01-13 05:01:00,
2013-01-12 23:03:00,23.4,13.0,29.95,North,0,1.6,4.5,64,0.00,,,0.00,WUHU216HW,2013-01-13 05:03:00,
2013-01-12 23:08:00,23.4,13.3,29.95,NNE,23,2.0,4.5,65,0.00,,,0.00,WUHU216HW,2013-01-13 05:08:00,
2013-01-12 23:13:00,23.4,13.0,29.97,NNW,338,1.8,3.6,64,0.00,,,0.00,WUHU216HW,2013-01-13 05:13:00,
2013-01-12 23:18:00,23.2,12.8,29.96,West,270,1.8,3.4,64,0.00,,,0.00,WUHU216HW,2013-01-13 05:18:00,
2013-01-12 23:23:00,23.0,13.0,29.97,West,270,0.7,3.4,65,0.00,,,0.00,WUHU216HW,2013-01-13 05:23:00,
2013-01-12 23:28:00,22.9,12.8,29.96,ENE,68,3.8,4.3,65,0.00,,,0.00,WUHU216HW,2013-01-13 05:28:00,
2013-01-12 23:33:00,22.7,12.6,29.97,West,270,2.2,4.3,65,0.00,,,0.00,WUHU216HW,2013-01-13 05:33:00,
2013-01-12 23:38:00,22.5,12.4,29.96,NW,315,3.4,5.4,65,0.00,,,0.00,WUHU216HW,2013-01-13 05:38:00,
2013-01-12 23:43:00,22.3,12.6,29.97,WNW,293,0.7,5.4,66,0.00,,,0.00,WUHU216HW,2013-01-13 05:43:00,
2013-01-12 23:48:00,22.3,12.6,29.97,North,0,1.1,5.4,66,0.00,,,0.00,WUHU216HW,2013-01-13 05:48:00,
2013-01-12 23:53:00,22.1,12.4,29.97,West,270,1.3,3.8,66,0.00,,,0.00,WUHU216HW,2013-01-13 05:53:00,
2013-01-12 23:58:00,22.0,12.2,29.97,WNW,293,3.4,3.8,66,0.00,,,0.00,WUHU216HW,2013-01-13 05:58:00,